Time;durP1;ratioP1;P1;durP2;ratioP2;P2;SDS_P1;SDS_P2;PMS_P1;PMS_P2;Temp;Humidity;BMP_temperature;BMP_pressure;BME280_temperature;BME280_humidity;BME280_pressure;Samples;Min_cycle;Max_cycle;Signal;HPM_P1;HPM_P2
2022/03/15 00:02:20;;;;;;;9.10;7.27;;;8.10;23.30;;;;;;10323618;28;20564;-77
2022/03/15 00:07:24;;;;;;;9.43;7.77;;;8.10;23.20;;;;;;10330787;28;20254;-77
2022/03/15 00:12:29;;;;;;;8.47;6.50;;;8.10;23.30;;;;;;10330102;28;20234;-77
2022/03/15 00:17:32;;;;;;;9.03;6.90;;;8.20;23.40;;;;;;10329508;28;20233;-77
2022/03/15 00:22:36;;;;;;;7.97;6.87;;;8.10;23.20;;;;;;10327597;28;20227;-77
2022/03/15 00:27:46;;;;;;;8.83;7.10;;;8.20;23.40;;;;;;10331151;28;20805;-77
2022/03/15 00:32:49;;;;;;;8.77;7.00;;;8.10;23.60;;;;;;10335625;28;20230;-77
2022/03/15 00:37:54;;;;;;;7.73;6.93;;;8.10;23.40;;;;;;10329752;28;20227;-77
2022/03/15 00:42:59;;;;;;;8.17;6.33;;;8.10;23.50;;;;;;10327754;28;20527;-77
2022/03/15 00:48:02;;;;;;;7.50;6.60;;;8.00;23.60;;;;;;10333096;28;20227;-77
2022/03/15 00:53:05;;;;;;;7.60;6.10;;;8.00;23.50;;;;;;10347192;28;20235;-76
2022/03/15 00:58:10;;;;;;;8.00;6.97;;;8.00;23.60;;;;;;10330491;28;20257;-76
2022/03/15 01:03:13;;;;;;;6.93;6.27;;;8.00;23.80;;;;;;10334426;28;20718;-77
2022/03/15 01:08:18;;;;;;;8.03;6.80;;;8.00;23.70;;;;;;10330701;28;20235;-76
2022/03/15 01:13:22;;;;;;;7.50;6.30;;;7.90;23.90;;;;;;10330101;28;20238;-76
2022/03/15 01:18:25;;;;;;;9.17;6.07;;;7.90;24.10;;;;;;10334093;28;20703;-76
2022/03/15 01:23:29;;;;;;;7.60;6.20;;;7.90;23.90;;;;;;10330454;28;20255;-77
2022/03/15 01:28:33;;;;;;;7.47;6.27;;;7.90;23.90;;;;;;10339976;28;20223;-76
2022/03/15 01:33:36;;;;;;;7.10;6.33;;;7.80;24.10;;;;;;10324173;28;20231;-77
2022/03/15 01:38:39;;;;;;;8.97;6.80;;;7.80;24.10;;;;;;10334413;28;20234;-77
2022/03/15 01:43:46;;;;;;;6.10;5.50;;;7.80;24.10;;;;;;10341381;28;20231;-76
2022/03/15 01:48:49;;;;;;;8.93;6.23;;;7.80;24.30;;;;;;10328828;28;20227;-77
2022/03/15 01:53:52;;;;;;;7.33;6.17;;;7.80;24.20;;;;;;10334249;28;20234;-77
2022/03/15 01:58:57;;;;;;;8.87;5.90;;;7.70;24.10;;;;;;10331240;28;20233;-76
2022/03/15 02:04:00;;;;;;;5.77;5.17;;;7.70;24.50;;;;;;10332563;28;20250;-77
2022/03/15 02:09:10;;;;;;;8.90;6.40;;;7.60;24.30;;;;;;10331814;28;20235;-77
2022/03/15 02:14:14;;;;;;;6.40;5.80;;;7.60;25.10;;;;;;10331819;28;20234;-77
2022/03/15 02:19:18;;;;;;;7.30;6.60;;;7.60;24.60;;;;;;10339805;28;20232;-76
2022/03/15 02:24:22;;;;;;;6.80;6.10;;;7.60;24.40;;;;;;10332017;28;20234;-76
2022/03/15 02:29:25;;;;;;;6.23;5.63;;;7.60;24.70;;;;;;10329276;28;20237;-76
2022/03/15 02:34:29;;;;;;;7.80;5.40;;;7.60;24.60;;;;;;10324914;28;20942;-76
2022/03/15 02:39:33;;;;;;;8.20;6.27;;;7.50;24.40;;;;;;10333188;28;20737;-77
2022/03/15 02:44:37;;;;;;;6.87;6.17;;;7.60;25.00;;;;;;10334877;28;20230;-77
2022/03/15 02:49:40;;;;;;;6.30;5.70;;;7.50;24.70;;;;;;10332529;28;20237;-76
2022/03/15 02:54:44;;;;;;;6.97;6.00;;;7.50;24.70;;;;;;10327120;28;20600;-77
2022/03/15 02:59:48;;;;;;;6.30;5.70;;;7.50;25.10;;;;;;10328415;28;20235;-76
2022/03/15 03:04:51;;;;;;;7.17;6.03;;;7.50;25.00;;;;;;10329174;28;20230;-77
2022/03/15 03:09:55;;;;;;;8.20;6.20;;;7.50;25.00;;;;;;10331554;28;20230;-77
2022/03/15 03:15:00;;;;;;;6.60;6.00;;;7.50;25.40;;;;;;10329443;28;20241;-77
2022/03/15 03:20:09;;;;;;;8.20;5.97;;;7.40;25.00;;;;;;10329592;28;20227;-77
2022/03/15 03:25:15;;;;;;;7.73;5.87;;;7.40;25.00;;;;;;10324828;28;20230;-76
2022/03/15 03:30:18;;;;;;;7.87;6.07;;;7.40;25.40;;;;;;10325886;28;20231;-76
2022/03/15 03:35:22;;;;;;;7.23;6.03;;;7.30;25.10;;;;;;10325388;28;20249;-76
2022/03/15 03:40:27;;;;;;;7.43;5.70;;;7.30;25.20;;;;;;10320817;28;20227;-76
2022/03/15 03:45:30;;;;;;;6.70;5.40;;;7.30;25.50;;;;;;10330368;28;20235;-76
2022/03/15 03:50:34;;;;;;;5.30;4.80;;;7.20;25.50;;;;;;10341825;28;20237;-76
2022/03/15 03:55:38;;;;;;;6.07;4.80;;;7.30;25.50;;;;;;10329323;28;20227;-77
2022/03/15 04:00:41;;;;;;;5.67;4.43;;;7.30;25.90;;;;;;10322823;28;20234;-76
2022/03/15 04:05:46;;;;;;;5.97;4.70;;;7.30;25.70;;;;;;10321564;28;20242;-77
2022/03/15 04:10:51;;;;;;;7.37;5.07;;;7.30;25.90;;;;;;10323441;28;20231;-76
2022/03/15 04:15:54;;;;;;;6.77;4.30;;;7.30;26.10;;;;;;10330558;28;20235;-76
2022/03/15 04:20:57;;;;;;;5.57;4.63;;;7.30;26.00;;;;;;10326878;28;20653;-77
2022/03/15 04:26:02;;;;;;;4.90;4.40;;;7.30;26.00;;;;;;10324895;28;20931;-77
2022/03/15 04:31:05;;;;;;;6.17;4.50;;;7.30;26.30;;;;;;10327079;28;20237;-77
2022/03/15 04:36:08;;;;;;;4.80;4.37;;;7.30;26.10;;;;;;10336192;28;20727;-77
2022/03/15 04:41:13;;;;;;;5.77;4.10;;;7.30;26.20;;;;;;10322262;28;20227;-77
2022/03/15 04:46:16;;;;;;;5.30;4.40;;;7.30;26.50;;;;;;10322570;28;20238;-75
2022/03/15 04:51:20;;;;;;;5.67;4.50;;;7.20;26.30;;;;;;10318468;28;20227;-77
2022/03/15 04:56:25;;;;;;;4.90;4.10;;;7.30;26.40;;;;;;10323106;28;20237;-77
2022/03/15 05:01:28;;;;;;;5.07;4.13;;;7.20;26.60;;;;;;10323934;28;20231;-77
2022/03/15 05:06:31;;;;;;;5.83;4.67;;;7.20;26.30;;;;;;10330571;28;20613;-77
2022/03/15 05:11:36;;;;;;;5.00;4.33;;;7.30;26.60;;;;;;10328852;28;20242;-77
2022/03/15 05:16:39;;;;;;;5.43;4.67;;;7.30;27.00;;;;;;10328174;28;20235;-77
2022/03/15 05:21:43;;;;;;;5.87;5.00;;;7.30;26.70;;;;;;10338153;28;20243;-76
2022/03/15 05:26:47;;;;;;;5.00;4.50;;;7.30;26.80;;;;;;10328042;28;20231;-77
2022/03/15 05:31:50;;;;;;;5.50;4.20;;;7.30;27.00;;;;;;10330852;28;20230;-77
2022/03/15 05:36:53;;;;;;;6.70;5.23;;;7.40;26.80;;;;;;10337158;28;20230;-77
2022/03/15 05:41:58;;;;;;;5.87;5.27;;;7.40;26.80;;;;;;10335024;28;20237;-76
2022/03/15 05:47:01;;;;;;;6.10;5.50;;;7.30;27.30;;;;;;10338693;28;20245;-76
2022/03/15 05:52:07;;;;;;;7.20;6.00;;;7.40;26.90;;;;;;10325752;28;20563;-77
2022/03/15 05:57:12;;;;;;;11.27;5.77;;;7.40;27.40;;;;;;10335432;28;20226;-75
2022/03/15 06:02:15;;;;;;;5.43;4.93;;;7.40;27.40;;;;;;10326282;28;20230;-75
2022/03/15 06:07:18;;;;;;;6.20;5.37;;;7.40;27.10;;;;;;10324830;28;20753;-75
2022/03/15 06:12:23;;;;;;;7.23;5.20;;;7.40;27.30;;;;;;10332230;28;20250;-75
2022/03/15 06:17:26;;;;;;;7.67;5.97;;;7.50;28.20;;;;;;10320842;28;20236;-75
2022/03/15 06:22:30;;;;;;;6.90;6.17;;;7.60;27.50;;;;;;10341900;28;20265;-77
2022/03/15 06:27:34;;;;;;;6.97;6.03;;;7.60;27.50;;;;;;10320620;28;20288;-76
2022/03/15 06:32:38;;;;;;;5.80;5.23;;;7.70;27.70;;;;;;10330128;28;20237;-77
2022/03/15 06:37:45;;;;;;;6.33;5.53;;;7.70;27.60;;;;;;10330733;28;20268;-76
2022/03/15 06:42:50;;;;;;;7.23;6.53;;;7.70;27.60;;;;;;10335213;28;20239;-77
2022/03/15 06:47:54;;;;;;;25.80;16.07;;;7.80;28.00;;;;;;10332828;28;20628;-77
2022/03/15 06:52:57;;;;;;;23.90;18.43;;;7.80;27.70;;;;;;10329557;28;20602;-76
2022/03/15 06:58:01;;;;;;;11.43;9.77;;;7.80;27.70;;;;;;10331528;28;20722;-76
2022/03/15 07:03:05;;;;;;;9.40;8.00;;;7.80;28.10;;;;;;10334722;28;20230;-76
2022/03/15 07:08:08;;;;;;;8.33;6.60;;;7.80;28.20;;;;;;10323635;28;20223;-76
2022/03/15 07:13:13;;;;;;;7.33;6.63;;;7.80;28.20;;;;;;10323199;28;20241;-76
2022/03/15 07:18:18;;;;;;;8.17;7.10;;;7.80;28.70;;;;;;10330985;28;20699;-76
2022/03/15 07:23:21;;;;;;;8.10;6.83;;;7.80;28.40;;;;;;10331876;28;20239;-76
2022/03/15 07:28:26;;;;;;;8.97;7.57;;;7.90;28.60;;;;;;10329562;28;20230;-77
2022/03/15 07:33:29;;;;;;;8.93;7.70;;;7.90;28.90;;;;;;10329332;28;20230;-76
2022/03/15 07:38:32;;;;;;;10.97;7.93;;;8.00;28.90;;;;;;10320026;28;20590;-77
2022/03/15 07:43:37;;;;;;;11.23;7.97;;;8.20;28.80;;;;;;10327098;28;20608;-77
2022/03/15 07:48:41;;;;;;;8.90;8.00;;;8.30;29.20;;;;;;10332287;28;20235;-77
2022/03/15 07:53:44;;;;;;;10.83;8.33;;;8.40;28.80;;;;;;10329194;28;20235;-77
2022/03/15 07:58:48;;;;;;;9.93;8.70;;;8.50;28.90;;;;;;10330022;28;20231;-77
2022/03/15 08:03:53;;;;;;;9.20;8.30;;;8.60;29.40;;;;;;10317549;28;20227;-77
2022/03/15 08:08:58;;;;;;;9.07;7.87;;;8.70;29.00;;;;;;10315913;28;20251;-77
2022/03/15 08:14:03;;;;;;;10.63;8.43;;;8.80;29.00;;;;;;10325281;28;20227;-77
2022/03/15 08:19:08;;;;;;;9.83;8.77;;;8.90;29.30;;;;;;10321275;28;20657;-77
2022/03/15 08:24:12;;;;;;;9.30;8.47;;;9.00;29.10;;;;;;10329654;28;20257;-77
2022/03/15 08:29:16;;;;;;;11.03;8.63;;;9.20;29.10;;;;;;10319028;28;20231;-77
2022/03/15 08:34:20;;;;;;;10.70;9.67;;;9.30;29.40;;;;;;10333892;28;20242;-77
2022/03/15 08:39:24;;;;;;;14.53;12.43;;;9.50;29.10;;;;;;10326051;28;20232;-77
2022/03/15 08:44:29;;;;;;;17.00;14.07;;;9.60;29.30;;;;;;10324627;28;20727;-77
2022/03/15 08:49:32;;;;;;;14.23;12.83;;;9.70;29.70;;;;;;10320847;28;20256;-77
2022/03/15 08:54:35;;;;;;;14.97;13.43;;;9.90;29.30;;;;;;10329085;28;20241;-77
2022/03/15 08:59:40;;;;;;;15.17;13.67;;;10.10;28.80;;;;;;10326929;28;20231;-77
2022/03/15 09:04:43;;;;;;;14.97;13.27;;;10.30;29.10;;;;;;10331267;28;20735;-77
2022/03/15 09:09:46;;;;;;;15.50;13.90;;;10.50;28.70;;;;;;10330284;28;20238;-77
2022/03/15 09:14:50;;;;;;;14.50;13.03;;;10.70;28.80;;;;;;10320458;28;20241;-77
2022/03/15 09:19:54;;;;;;;15.20;13.70;;;10.90;28.90;;;;;;10315984;28;20234;-77
2022/03/15 09:24:57;;;;;;;15.30;13.80;;;11.00;29.00;;;;;;10327813;28;20661;-77
2022/03/15 09:30:02;;;;;;;14.40;13.07;;;11.20;28.90;;;;;;10330778;28;20237;-77
2022/03/15 09:35:06;;;;;;;14.20;12.80;;;11.40;28.90;;;;;;10331393;28;20631;-77
2022/03/15 09:40:11;;;;;;;15.13;12.77;;;11.50;28.70;;;;;;10330606;28;20242;-77
2022/03/15 09:45:21;;;;;;;14.33;12.70;;;11.60;28.80;;;;;;10337126;28;20265;-77
2022/03/15 09:50:25;;;;;;;14.30;12.43;;;11.70;28.90;;;;;;10331470;28;20246;-77
2022/03/15 09:55:28;;;;;;;13.83;12.17;;;11.80;28.50;;;;;;10326088;28;20592;-77
2022/03/15 10:00:37;;;;;;;14.20;12.90;;;11.90;28.40;;;;;;10334582;28;20234;-77
2022/03/15 10:05:41;;;;;;;13.53;12.23;;;12.00;28.40;;;;;;10324965;28;20326;-77
2022/03/15 10:10:44;;;;;;;12.60;11.47;;;12.20;28.30;;;;;;10333662;28;20238;-78
2022/03/15 10:15:54;;;;;;;14.40;12.90;;;12.20;28.20;;;;;;10329248;28;20246;-77
2022/03/15 10:20:57;;;;;;;13.83;12.43;;;12.30;28.90;;;;;;10338954;28;20234;-77
2022/03/15 10:26:04;;;;;;;12.23;10.30;;;12.40;28.30;;;;;;10331789;28;20782;-77
2022/03/15 10:31:10;;;;;;;12.37;11.27;;;12.50;28.20;;;;;;10330993;28;20735;-77
2022/03/15 10:36:17;;;;;;;12.73;11.43;;;12.60;28.30;;;;;;10324332;28;20254;-77
2022/03/15 10:41:21;;;;;;;14.17;12.33;;;12.70;28.40;;;;;;10329534;28;20619;-77
2022/03/15 10:46:27;;;;;;;12.93;11.67;;;12.70;28.30;;;;;;10321711;28;20246;-77
2022/03/15 10:51:31;;;;;;;13.17;11.97;;;12.80;28.40;;;;;;10315821;28;20230;-77
2022/03/15 10:56:34;;;;;;;12.80;11.60;;;12.90;28.40;;;;;;10321362;28;20269;-77
2022/03/15 11:01:41;;;;;;;15.00;13.40;;;13.00;28.30;;;;;;10332185;28;20227;-77
2022/03/15 11:06:46;;;;;;;12.57;11.37;;;13.00;28.80;;;;;;10327169;28;20240;-77
2022/03/15 11:11:54;;;;;;;13.60;12.20;;;13.10;28.40;;;;;;10329921;28;20230;-77
2022/03/15 11:16:58;;;;;;;13.60;12.17;;;13.10;28.60;;;;;;10322828;28;20254;-77
2022/03/15 11:22:03;;;;;;;14.27;12.87;;;13.20;28.50;;;;;;10323764;28;20648;-77
2022/03/15 11:27:08;;;;;;;12.07;10.97;;;13.30;28.40;;;;;;10323536;28;20261;-77
2022/03/15 11:32:15;;;;;;;12.93;11.63;;;13.40;28.60;;;;;;10329493;28;20237;-77
2022/03/15 11:37:18;;;;;;;12.13;11.07;;;13.40;28.70;;;;;;10326410;28;20288;-77
2022/03/15 11:42:22;;;;;;;13.20;11.90;;;13.50;28.30;;;;;;10323516;28;20616;-77
2022/03/15 11:47:41;;;;;;;12.23;11.13;;;13.50;28.00;;;;;;10326986;28;20238;-77
2022/03/15 11:53:00;;;;;;;13.03;11.73;;;13.60;28.60;;;;;;10322972;28;20321;-77
2022/03/15 11:58:05;;;;;;;14.27;12.90;;;13.60;28.50;;;;;;10323063;28;20227;-77
2022/03/15 12:03:13;;;;;;;12.87;11.67;;;13.60;28.10;;;;;;10321477;28;20236;-77
2022/03/15 12:08:23;;;;;;;12.40;11.20;;;13.60;28.20;;;;;;10328270;28;20762;-77
2022/03/15 12:13:39;;;;;;;12.17;10.97;;;13.70;28.20;;;;;;10312852;28;20246;-74
2022/03/15 12:18:53;;;;;;;11.20;10.10;;;13.70;28.30;;;;;;10324434;28;20326;-74
2022/03/15 12:23:56;;;;;;;11.10;10.10;;;13.70;28.20;;;;;;10320689;28;20239;-75
2022/03/15 12:29:02;;;;;;;11.10;10.00;;;13.80;27.90;;;;;;10327583;28;20238;-74
2022/03/15 12:34:09;;;;;;;12.77;10.27;;;13.80;28.00;;;;;;10327530;28;20223;-74
2022/03/15 12:39:14;;;;;;;10.73;9.67;;;13.90;27.80;;;;;;10328522;28;20703;-74
2022/03/15 12:44:38;;;;;;;10.00;9.00;;;13.90;27.70;;;;;;10328021;28;20233;-74
2022/03/15 12:50:08;;;;;;;10.43;9.43;;;14.00;28.30;;;;;;10328047;28;20951;-75
2022/03/15 12:55:20;;;;;;;9.67;8.77;;;14.00;27.90;;;;;;10320089;28;20726;-74
2022/03/15 13:00:25;;;;;;;12.10;9.20;;;14.00;28.10;;;;;;10331318;28;20604;-74
2022/03/15 13:05:31;;;;;;;10.70;9.60;;;14.00;27.80;;;;;;10336610;28;20231;-74
2022/03/15 13:10:38;;;;;;;10.37;9.37;;;14.10;27.90;;;;;;10331179;28;20229;-75
2022/03/15 13:15:48;;;;;;;8.90;8.00;;;14.10;27.70;;;;;;10332870;28;20271;-74
2022/03/15 13:21:02;;;;;;;8.80;8.00;;;14.10;27.70;;;;;;10330112;28;20231;-74
2022/03/15 13:26:07;;;;;;;8.00;7.30;;;14.10;27.90;;;;;;10322403;28;20254;-74
2022/03/15 13:31:14;;;;;;;8.90;8.00;;;14.20;27.80;;;;;;10325959;28;20313;-75
2022/03/15 13:36:20;;;;;;;9.67;8.80;;;14.20;27.90;;;;;;10322919;28;20285;-74
2022/03/15 13:41:25;;;;;;;10.97;9.87;;;14.20;28.00;;;;;;10319368;28;20686;-75
2022/03/15 13:46:29;;;;;;;11.97;10.77;;;14.20;27.90;;;;;;10312593;28;20599;-75
2022/03/15 13:51:36;;;;;;;10.67;9.03;;;14.20;27.90;;;;;;10314525;28;20247;-75
2022/03/15 13:56:41;;;;;;;12.67;10.03;;;14.30;28.40;;;;;;10314060;28;21742;-73
2022/03/15 14:01:46;;;;;;;11.13;9.67;;;14.20;28.40;;;;;;10314991;28;20231;-74
2022/03/15 14:06:51;;;;;;;10.47;9.47;;;14.20;28.60;;;;;;10325311;28;20235;-75
2022/03/15 14:12:08;;;;;;;9.43;8.57;;;14.20;28.70;;;;;;10326538;28;20249;-77
2022/03/15 14:17:11;;;;;;;9.50;8.50;;;14.20;29.50;;;;;;10325033;28;20645;-77
2022/03/15 14:22:23;;;;;;;10.23;9.23;;;14.20;28.70;;;;;;10334102;28;20727;-77
2022/03/15 14:27:28;;;;;;;10.00;9.10;;;14.20;29.70;;;;;;10324743;28;20723;-77
2022/03/15 14:32:32;;;;;;;9.90;9.00;;;14.10;29.30;;;;;;10327878;28;20250;-77
2022/03/15 14:37:37;;;;;;;11.93;10.73;;;14.10;29.40;;;;;;10331222;28;20234;-77
2022/03/15 14:42:43;;;;;;;32.57;23.77;;;13.90;30.00;;;;;;10327944;28;20241;-77
2022/03/15 14:47:46;;;;;;;40.73;30.50;;;13.80;29.80;;;;;;10327077;28;20617;-77
2022/03/15 14:52:51;;;;;;;22.83;18.33;;;13.60;29.70;;;;;;10331865;28;20242;-77
2022/03/15 14:58:03;;;;;;;15.20;12.07;;;13.50;30.50;;;;;;10321996;28;20326;-77
2022/03/15 15:03:08;;;;;;;11.73;10.63;;;13.40;30.50;;;;;;10324913;28;20235;-74
2022/03/15 15:08:14;;;;;;;10.37;9.30;;;13.40;30.70;;;;;;10321433;28;20241;-77
2022/03/15 15:13:20;;;;;;;10.27;9.20;;;13.30;30.60;;;;;;10319064;28;20239;-77
2022/03/15 15:18:24;;;;;;;10.27;9.17;;;13.30;30.60;;;;;;10315676;28;20250;-77
2022/03/15 15:23:29;;;;;;;9.80;8.80;;;13.30;30.60;;;;;;10326821;28;20227;-76
2022/03/15 15:28:34;;;;;;;8.53;7.67;;;13.30;30.70;;;;;;10320794;28;20719;-77
2022/03/15 15:33:39;;;;;;;9.50;8.30;;;13.30;30.60;;;;;;10324260;28;20246;-77
2022/03/15 15:38:46;;;;;;;9.07;8.27;;;13.20;30.50;;;;;;10318563;28;20238;-76
2022/03/15 15:43:49;;;;;;;10.50;8.67;;;13.20;30.80;;;;;;10325066;28;20639;-77
2022/03/15 15:48:54;;;;;;;9.03;8.23;;;13.20;30.50;;;;;;10320599;28;20741;-76
2022/03/15 15:53:59;;;;;;;9.43;8.53;;;13.10;30.40;;;;;;10331258;28;20218;-76
2022/03/15 15:59:02;;;;;;;9.23;8.27;;;13.10;31.60;;;;;;10323916;28;20268;-76
2022/03/15 16:04:05;;;;;;;10.17;8.33;;;13.00;31.20;;;;;;10323452;28;20230;-76
2022/03/15 16:09:10;;;;;;;9.57;8.70;;;12.90;31.20;;;;;;10334231;28;20254;-76
2022/03/15 16:14:14;;;;;;;11.03;9.87;;;12.90;31.90;;;;;;10326169;28;20251;-75
2022/03/15 16:19:18;;;;;;;11.53;10.37;;;12.90;31.30;;;;;;10329828;28;20231;-75
2022/03/15 16:24:22;;;;;;;9.03;8.20;;;12.90;31.20;;;;;;10318504;28;20234;-75
2022/03/15 16:29:26;;;;;;;8.17;7.47;;;12.90;31.60;;;;;;10328148;28;20231;-75
2022/03/15 16:34:30;;;;;;;9.30;8.20;;;12.90;31.50;;;;;;10329766;28;20238;-75
2022/03/15 16:39:35;;;;;;;9.53;7.77;;;12.90;31.70;;;;;;10325639;28;20308;-75
2022/03/15 16:44:39;;;;;;;11.30;8.60;;;12.90;31.90;;;;;;10325876;28;20227;-76
2022/03/15 16:49:43;;;;;;;15.00;11.63;;;12.90;31.50;;;;;;10324158;28;20235;-76
2022/03/15 16:54:48;;;;;;;10.40;9.10;;;12.90;31.50;;;;;;10312394;28;20313;-76
2022/03/15 16:59:51;;;;;;;9.87;8.83;;;12.90;31.90;;;;;;10316524;28;20822;-76
2022/03/15 17:10:16;;;;;;;8.40;7.60;;;12.90;31.90;;;;;;10300883;28;20237;-75
2022/03/15 17:15:20;;;;;;;8.17;7.37;;;12.90;32.30;;;;;;10302619;28;20235;-75
2022/03/15 17:20:23;;;;;;;9.23;8.20;;;13.00;32.00;;;;;;10304659;28;20263;-76
2022/03/15 17:25:29;;;;;;;8.57;7.77;;;13.00;32.30;;;;;;10312295;28;20235;-76
2022/03/15 17:30:34;;;;;;;13.00;11.67;;;13.00;32.70;;;;;;10309084;28;20598;-76
2022/03/15 17:35:38;;;;;;;9.90;7.63;;;13.10;32.30;;;;;;10307401;28;20629;-76
2022/03/15 17:40:43;;;;;;;7.77;7.07;;;13.10;32.70;;;;;;10303648;28;20231;-76
2022/03/15 17:45:46;;;;;;;10.83;7.57;;;13.00;33.10;;;;;;10304484;28;20231;-76
2022/03/15 17:50:50;;;;;;;7.40;6.67;;;13.00;33.10;;;;;;10309714;28;20237;-76
2022/03/15 17:55:57;;;;;;;9.03;8.23;;;13.00;32.90;;;;;;10307501;28;20223;-76
2022/03/15 18:01:08;;;;;;;9.00;8.10;;;12.90;33.70;;;;;;10313109;28;20226;-77
2022/03/15 18:06:14;;;;;;;9.30;7.50;;;12.90;33.10;;;;;;10310379;28;20222;-76
2022/03/15 18:11:20;;;;;;;9.83;7.70;;;12.90;33.20;;;;;;10309501;28;20285;-76
2022/03/15 18:16:27;;;;;;;9.17;8.17;;;12.80;33.80;;;;;;10321042;28;20734;-75
2022/03/15 18:21:34;;;;;;;20.90;18.63;;;12.80;33.60;;;;;;10306710;28;20244;-75
2022/03/15 18:26:40;;;;;;;54.90;45.43;;;12.80;33.30;;;;;;10302894;28;20318;-74
2022/03/15 18:31:43;;;;;;;40.77;35.97;;;12.80;34.30;;;;;;10307841;28;20249;-75
2022/03/15 18:36:47;;;;;;;24.47;21.70;;;12.80;33.50;;;;;;10313201;28;20607;-75
2022/03/15 18:41:52;;;;;;;12.00;10.90;;;12.70;33.70;;;;;;10300068;28;20261;-75
2022/03/15 18:46:55;;;;;;;14.67;11.53;;;12.70;34.30;;;;;;10301018;28;20250;-75
2022/03/15 18:51:59;;;;;;;15.53;12.73;;;12.70;33.90;;;;;;10306463;28;21007;-75
2022/03/15 18:57:05;;;;;;;15.57;12.60;;;12.70;34.30;;;;;;10301433;28;20235;-75
2022/03/15 19:02:08;;;;;;;14.83;13.27;;;12.70;34.60;;;;;;10304406;28;20231;-75
2022/03/15 19:07:12;;;;;;;14.10;12.70;;;12.70;34.30;;;;;;10306057;28;20893;-75
2022/03/15 19:12:18;;;;;;;12.27;9.43;;;12.80;34.20;;;;;;10303318;28;20709;-75
2022/03/15 19:17:21;;;;;;;15.10;13.37;;;12.80;34.90;;;;;;10307649;28;20230;-75
2022/03/15 19:22:24;;;;;;;9.57;8.57;;;12.80;34.20;;;;;;10308106;28;20261;-75
2022/03/15 19:27:30;;;;;;;8.67;7.87;;;12.80;34.20;;;;;;10312590;28;20663;-75
2022/03/15 19:32:34;;;;;;;8.93;8.03;;;12.80;34.90;;;;;;10301581;28;20235;-74
2022/03/15 19:37:38;;;;;;;7.90;7.20;;;12.80;34.30;;;;;;10312196;28;20570;-76
2022/03/15 19:42:43;;;;;;;9.33;7.47;;;12.80;34.50;;;;;;10329285;28;20249;-77
2022/03/15 19:47:47;;;;;;;7.57;6.87;;;12.70;35.00;;;;;;10318639;28;20231;-77
2022/03/15 19:52:51;;;;;;;7.63;6.93;;;12.70;34.60;;;;;;10315407;28;20277;-77
2022/03/15 19:57:56;;;;;;;7.83;6.67;;;12.70;34.70;;;;;;10322537;28;20230;-77
2022/03/15 20:02:59;;;;;;;8.27;7.50;;;12.60;35.20;;;;;;10319298;28;20232;-77
2022/03/15 20:08:02;;;;;;;11.17;10.00;;;12.60;34.90;;;;;;10313404;28;20234;-76
2022/03/15 20:13:11;;;;;;;9.63;8.23;;;12.50;34.90;;;;;;10310410;28;20231;-76
2022/03/15 20:18:15;;;;;;;8.60;7.17;;;12.40;35.80;;;;;;10320216;28;20226;-76
2022/03/15 20:23:19;;;;;;;9.17;7.47;;;12.40;35.40;;;;;;10315313;28;20234;-76
2022/03/15 20:28:24;;;;;;;9.83;7.97;;;12.30;35.50;;;;;;10317239;28;20240;-76
2022/03/15 20:33:30;;;;;;;7.53;6.47;;;12.20;36.40;;;;;;10321268;28;20238;-76
2022/03/15 20:38:35;;;;;;;6.60;6.00;;;12.20;36.20;;;;;;10320843;28;20572;-76
2022/03/15 20:49:01;;;;;;;7.40;5.70;;;12.10;36.80;;;;;;10338457;28;20238;-76
2022/03/15 20:54:04;;;;;;;8.00;5.40;;;12.00;36.30;;;;;;10327149;28;20235;-78
2022/03/15 20:59:14;;;;;;;6.20;5.57;;;12.00;36.50;;;;;;10334690;28;20604;-76
2022/03/15 21:04:17;;;;;;;8.37;5.30;;;12.00;37.70;;;;;;10329282;28;20247;-76
2022/03/15 21:09:21;;;;;;;5.73;5.23;;;12.00;37.50;;;;;;10319930;28;20231;-76
2022/03/15 21:14:30;;;;;;;5.77;5.17;;;11.90;36.80;;;;;;10304624;28;20261;-76
2022/03/15 21:19:49;;;;;;;6.10;4.93;;;12.00;37.60;;;;;;10312876;28;20235;-76
2022/03/15 21:24:54;;;;;;;6.10;5.50;;;12.00;36.90;;;;;;10317693;28;21227;-76
2022/03/15 21:29:59;;;;;;;8.23;5.43;;;12.00;36.90;;;;;;10318019;28;20712;-76
2022/03/15 21:35:02;;;;;;;7.10;5.27;;;12.10;37.50;;;;;;10314050;28;20235;-76
2022/03/15 21:40:08;;;;;;;5.83;5.23;;;12.10;37.10;;;;;;10319855;28;20219;-76
2022/03/15 21:45:13;;;;;;;5.90;5.30;;;12.10;37.10;;;;;;10320259;28;20239;-76
2022/03/15 21:50:16;;;;;;;7.00;5.60;;;12.10;37.50;;;;;;10315181;28;20238;-76
2022/03/15 21:55:19;;;;;;;7.83;5.73;;;12.20;37.00;;;;;;10315289;28;20865;-76
2022/03/15 22:00:24;;;;;;;5.97;5.37;;;12.20;36.90;;;;;;10308079;28;20750;-76
2022/03/15 22:05:27;;;;;;;6.23;5.63;;;12.20;37.50;;;;;;10314710;28;20238;-76
2022/03/15 22:10:30;;;;;;;6.97;5.63;;;12.20;37.10;;;;;;10312963;28;20239;-76
2022/03/15 22:15:35;;;;;;;9.10;6.33;;;12.20;37.10;;;;;;10315294;28;20242;-76
2022/03/15 22:20:38;;;;;;;7.00;6.20;;;12.30;37.90;;;;;;10312669;28;20861;-76
2022/03/15 22:25:42;;;;;;;6.57;5.63;;;12.30;37.20;;;;;;10316118;28;20891;-76
2022/03/15 23:18:26;;;;;;;9.10;7.37;;;12.20;37.60;;;;;;10301422;28;20250;-76
2022/03/15 23:23:29;;;;;;;7.37;6.67;;;12.30;38.20;;;;;;10313237;28;20236;-76
2022/03/15 23:28:34;;;;;;;8.63;7.87;;;12.30;37.60;;;;;;10311410;28;20235;-76
2022/03/15 23:33:38;;;;;;;7.83;7.13;;;12.30;37.90;;;;;;10306768;28;20751;-76
2022/03/15 23:38:42;;;;;;;8.93;8.03;;;12.30;38.20;;;;;;10306536;28;20232;-76
2022/03/15 23:43:45;;;;;;;9.97;8.90;;;12.30;37.80;;;;;;10309184;28;20242;-76
2022/03/15 23:48:49;;;;;;;9.37;8.57;;;12.30;37.90;;;;;;10307216;28;20231;-76
2022/03/15 23:53:52;;;;;;;11.40;8.37;;;12.30;39.40;;;;;;10309056;28;20235;-76
2022/03/15 23:58:56;;;;;;;11.20;10.20;;;12.20;38.20;;;;;;10308214;28;20234;-76
